Time;durP1;ratioP1;P1;durP2;ratioP2;P2;SDS_P1;SDS_P2;PMS_P1;PMS_P2;Temp;Humidity;BMP_temperature;BMP_pressure;BME280_temperature;BME280_humidity;BME280_pressure;Samples;Min_cycle;Max_cycle;Signal;HPM_P1;HPM_P2
2024/01/31 00:01:50;;;;;;;5.80;1.10;;;;;;;5.68;100.00;102798.34;4933613;28;20456;-74
2024/01/31 00:04:15;;;;;;;5.40;1.27;;;;;;;5.62;100.00;102808.88;4939292;28;20094;-75
2024/01/31 00:06:41;;;;;;;4.22;1.00;;;;;;;5.55;100.00;102808.81;4937903;28;20040;-76
2024/01/31 00:09:07;;;;;;;6.28;1.95;;;;;;;5.54;100.00;102806.34;4938045;28;20463;-76
2024/01/31 00:11:33;;;;;;;5.25;1.33;;;;;;;5.53;100.00;102810.84;4935389;28;20039;-78
2024/01/31 00:13:59;;;;;;;4.35;1.33;;;;;;;5.48;100.00;102803.41;4935717;28;20039;-77
2024/01/31 00:16:24;;;;;;;5.30;1.10;;;;;;;5.48;100.00;102815.88;4939509;28;20048;-79
2024/01/31 00:18:50;;;;;;;5.28;1.67;;;;;;;5.41;100.00;102814.97;4939568;28;20031;-78
2024/01/31 00:21:17;;;;;;;5.75;1.13;;;;;;;5.39;100.00;102809.03;4936860;28;20043;-79
2024/01/31 00:23:43;;;;;;;5.20;1.15;;;;;;;5.40;100.00;102810.66;4930306;28;20523;-81
2024/01/31 00:26:08;;;;;;;6.88;1.52;;;;;;;5.36;100.00;102818.19;4926250;28;20035;-78
2024/01/31 00:28:34;;;;;;;4.47;1.10;;;;;;;5.34;100.00;102822.84;4938442;28;20044;-76
2024/01/31 00:30:59;;;;;;;7.68;1.55;;;;;;;5.36;100.00;102826.16;4935807;28;20039;-78
2024/01/31 00:33:25;;;;;;;5.88;1.38;;;;;;;5.34;100.00;102827.34;4937918;28;20044;-77
2024/01/31 00:35:52;;;;;;;8.00;1.10;;;;;;;5.32;100.00;102834.69;4934465;28;20031;-78
2024/01/31 00:38:17;;;;;;;6.32;1.48;;;;;;;5.27;100.00;102837.88;4940710;28;20034;-77
2024/01/31 00:40:43;;;;;;;4.45;1.42;;;;;;;5.23;100.00;102835.78;4934704;28;20035;-77
2024/01/31 00:43:09;;;;;;;4.60;1.45;;;;;;;5.22;100.00;102842.94;4943046;28;20039;-78
2024/01/31 00:45:35;;;;;;;9.70;2.08;;;;;;;5.23;100.00;102831.31;4940429;28;20070;-77
2024/01/31 00:48:02;;;;;;;5.93;1.40;;;;;;;5.18;100.00;102844.28;4935819;28;20126;-77
2024/01/31 00:50:28;;;;;;;4.35;1.70;;;;;;;5.14;100.00;102838.50;4941125;28;20110;-75
2024/01/31 00:52:53;;;;;;;4.35;1.00;;;;;;;5.14;100.00;102849.13;4930343;28;20186;-77
2024/01/31 00:55:19;;;;;;;6.60;1.42;;;;;;;5.13;100.00;102863.41;4939639;28;20039;-76
2024/01/31 00:57:46;;;;;;;5.43;1.52;;;;;;;5.09;100.00;102854.19;4920798;29;20043;-77
2024/01/31 01:00:13;;;;;;;11.23;1.95;;;;;;;5.09;100.00;102862.16;4921979;28;20050;-77
2024/01/31 01:02:40;;;;;;;7.55;1.80;;;;;;;5.11;100.00;102860.13;4941469;28;20051;-77
2024/01/31 01:05:10;;;;;;;4.13;1.98;;;;;;;5.09;100.00;102862.16;4924142;28;20082;-78
2024/01/31 01:07:39;;;;;;;7.15;1.90;;;;;;;5.05;100.00;102868.00;4937051;28;20041;-78
2024/01/31 01:10:09;;;;;;;11.38;2.00;;;;;;;5.04;100.00;102869.84;4923258;28;20036;-78
2024/01/31 01:12:35;;;;;;;6.38;1.45;;;;;;;5.02;100.00;102865.72;4927085;29;20493;-78
2024/01/31 01:15:01;;;;;;;4.93;1.38;;;;;;;5.03;100.00;102878.81;4937167;28;20039;-79
2024/01/31 01:17:26;;;;;;;5.05;1.23;;;;;;;5.05;100.00;102881.28;4939004;28;20038;-78
2024/01/31 01:19:52;;;;;;;7.10;1.30;;;;;;;5.04;100.00;102877.78;4937772;28;20039;-77
2024/01/31 01:22:18;;;;;;;7.32;1.85;;;;;;;5.02;100.00;102873.69;4941089;28;20088;-78
2024/01/31 01:24:43;;;;;;;4.68;1.15;;;;;;;5.04;100.00;102877.78;4937736;28;20056;-77
2024/01/31 01:27:09;;;;;;;5.65;1.67;;;;;;;5.00;100.00;102879.16;4939138;28;20051;-77
2024/01/31 01:29:35;;;;;;;4.10;0.93;;;;;;;4.98;100.00;102889.13;4938676;28;20505;-76
2024/01/31 01:32:01;;;;;;;5.95;1.48;;;;;;;4.95;100.00;102886.03;4924191;28;20070;-77
2024/01/31 01:34:26;;;;;;;4.70;1.08;;;;;;;4.93;100.00;102907.44;4942756;28;20493;-77
2024/01/31 01:36:52;;;;;;;2.70;1.25;;;;;;;4.91;100.00;102890.88;4935517;28;20035;-76
2024/01/31 01:39:18;;;;;;;3.83;1.50;;;;;;;4.79;100.00;102898.41;4926241;28;20047;-77
2024/01/31 01:41:48;;;;;;;2.60;0.82;;;;;;;4.80;100.00;102900.06;4915785;29;20611;-77
2024/01/31 01:44:14;;;;;;;4.60;1.58;;;;;;;4.78;100.00;102901.25;4940777;28;20043;-77
2024/01/31 01:46:40;;;;;;;2.50;0.90;;;;;;;4.79;100.00;102900.25;4919921;29;20137;-76
2024/01/31 01:49:06;;;;;;;5.65;1.65;;;;;;;4.74;100.00;102915.88;4905749;28;20089;-76
2024/01/31 01:51:32;;;;;;;3.20;0.93;;;;;;;4.71;100.00;102918.91;4940879;28;20473;-76
2024/01/31 01:53:58;;;;;;;3.15;0.80;;;;;;;4.70;100.00;102917.25;4907475;29;20035;-76
2024/01/31 01:56:24;;;;;;;4.53;0.82;;;;;;;4.68;100.00;102917.44;4933176;28;20132;-76
2024/01/31 01:58:52;;;;;;;4.50;1.10;;;;;;;4.65;100.00;102926.56;4935380;28;20031;-77
2024/01/31 02:01:18;;;;;;;3.05;1.38;;;;;;;4.66;100.00;102935.34;4936334;28;20113;-76
2024/01/31 02:03:45;;;;;;;3.50;1.10;;;;;;;4.63;100.00;102941.84;4943355;28;20043;-75
2024/01/31 02:06:11;;;;;;;3.60;1.63;;;;;;;4.62;100.00;102944.69;4934023;28;20095;-78
2024/01/31 02:08:37;;;;;;;3.95;1.15;;;;;;;4.59;100.00;102948.50;4914882;29;20043;-77
2024/01/31 02:11:03;;;;;;;3.88;1.02;;;;;;;4.55;100.00;102952.53;4939919;28;20034;-78
2024/01/31 02:13:29;;;;;;;3.40;1.30;;;;;;;4.47;100.00;102954.38;4908571;29;20035;-77
2024/01/31 02:15:56;;;;;;;2.15;0.93;;;;;;;4.42;100.00;102954.91;4934210;28;20031;-78
2024/01/31 02:18:27;;;;;;;2.85;1.33;;;;;;;4.39;100.00;102940.16;4932199;28;20071;-76
2024/01/31 02:20:54;;;;;;;3.45;0.90;;;;;;;4.39;100.00;102947.28;4911550;29;20038;-77
2024/01/31 02:23:20;;;;;;;2.22;1.38;;;;;;;4.37;100.00;102952.78;4944074;28;20062;-77
2024/01/31 02:25:46;;;;;;;3.00;1.20;;;;;;;4.37;100.00;102947.47;4941787;28;20044;-77
2024/01/31 02:28:12;;;;;;;4.07;1.70;;;;;;;4.32;100.00;102949.00;4961168;28;20876;-78
2024/01/31 02:30:37;;;;;;;3.90;1.30;;;;;;;4.33;100.00;102947.97;4941743;28;20071;-77
2024/01/31 02:33:03;;;;;;;3.20;0.88;;;;;;;4.29;100.00;102944.03;4927359;29;20070;-73
2024/01/31 02:35:32;;;;;;;6.47;1.42;;;;;;;4.25;100.00;102946.19;4934354;28;20048;-76
2024/01/31 02:37:58;;;;;;;6.97;1.13;;;;;;;4.25;100.00;102953.34;4919224;29;20122;-76
2024/01/31 02:40:24;;;;;;;6.45;1.27;;;;;;;4.21;100.00;102941.44;4944687;28;20042;-76
2024/01/31 02:42:49;;;;;;;7.03;1.48;;;;;;;4.20;100.00;102945.06;4932629;28;20031;-76
2024/01/31 02:45:15;;;;;;;5.30;1.80;;;;;;;4.21;100.00;102952.06;4902681;28;20138;-75
2024/01/31 02:47:41;;;;;;;5.28;1.30;;;;;;;4.23;100.00;102940.25;4933061;28;20524;-78
2024/01/31 02:50:08;;;;;;;4.32;1.23;;;;;;;4.23;100.00;102937.59;4942786;28;20043;-78
2024/01/31 02:52:34;;;;;;;4.30;1.00;;;;;;;4.18;100.00;102941.78;4937596;28;20039;-77
2024/01/31 02:55:01;;;;;;;6.40;1.30;;;;;;;4.13;100.00;102933.50;4934050;28;20039;-78
2024/01/31 02:57:27;;;;;;;2.03;0.85;;;;;;;4.04;100.00;102935.38;4945536;28;20035;-78
2024/01/31 02:59:53;;;;;;;9.23;1.50;;;;;;;4.03;100.00;102931.06;4929118;28;20050;-77
2024/01/31 03:02:18;;;;;;;5.35;1.85;;;;;;;4.03;100.00;102934.56;4936010;28;20039;-77
2024/01/31 03:04:44;;;;;;;3.92;1.00;;;;;;;4.03;100.00;102937.19;4919670;29;20806;-77
2024/01/31 03:07:11;;;;;;;5.70;1.48;;;;;;;4.04;100.00;102936.19;4937541;28;20031;-77
2024/01/31 03:09:37;;;;;;;9.93;1.38;;;;;;;4.03;100.00;102947.81;4898734;29;20047;-77
2024/01/31 03:12:04;;;;;;;8.82;1.25;;;;;;;4.03;100.00;102945.16;4939091;28;20039;-77
2024/01/31 03:14:31;;;;;;;6.55;1.25;;;;;;;4.03;100.00;102945.16;4932736;28;20043;-77
2024/01/31 03:16:57;;;;;;;6.40;1.30;;;;;;;4.05;100.00;102953.75;4936581;28;20062;-78
2024/01/31 03:19:24;;;;;;;7.45;1.60;;;;;;;4.04;100.00;102952.09;4938362;28;20178;-76
2024/01/31 03:21:50;;;;;;;4.55;0.93;;;;;;;4.05;100.00;102947.63;4908523;29;20031;-77
2024/01/31 03:24:15;;;;;;;5.70;1.33;;;;;;;4.05;100.00;102948.44;4931935;28;20054;-77
2024/01/31 03:26:41;;;;;;;5.90;1.48;;;;;;;4.04;100.00;102946.81;4939120;28;20043;-77
2024/01/31 03:29:11;;;;;;;9.13;1.40;;;;;;;4.05;100.00;102964.38;4918263;29;20035;-77
2024/01/31 03:31:37;;;;;;;6.57;1.50;;;;;;;4.02;100.00;102954.13;4924416;28;20038;-79
2024/01/31 03:34:04;;;;;;;6.40;1.30;;;;;;;4.03;100.00;102966.38;4928715;29;20031;-77
2024/01/31 03:36:37;;;;;;;6.15;1.48;;;;;;;4.03;100.00;102966.38;4943505;28;20035;-78
2024/01/31 03:39:02;;;;;;;;;;;;;;;4.01;100.00;102973.69;4927971;28;20036;-78
2024/01/31 03:41:28;;;;;;;7.13;1.45;;;;;;;4.01;100.00;102968.38;4934474;28;20012;-78
2024/01/31 03:43:55;;;;;;;11.65;1.70;;;;;;;4.03;100.00;102970.84;4936442;28;20038;-77
2024/01/31 03:46:21;;;;;;;6.13;1.90;;;;;;;4.00;100.00;102969.38;4942301;28;20040;-77
2024/01/31 03:48:48;;;;;;;5.38;1.70;;;;;;;4.01;100.00;102972.84;4936486;28;20039;-77
2024/01/31 03:51:21;;;;;;;6.50;1.60;;;;;;;4.04;100.00;102981.28;4933737;28;20031;-77
2024/01/31 03:53:47;;;;;;;10.23;1.58;;;;;;;4.04;100.00;102972.50;4937424;28;20106;-77
2024/01/31 03:56:14;;;;;;;8.98;1.60;;;;;;;4.04;100.00;102980.44;4943130;28;20043;-78
2024/01/31 03:58:40;;;;;;;6.63;1.55;;;;;;;4.03;100.00;102966.38;4943308;28;20069;-77
2024/01/31 04:01:07;;;;;;;9.18;1.40;;;;;;;4.01;100.00;102960.41;4913562;29;20044;-76
2024/01/31 04:03:36;;;;;;;7.68;1.65;;;;;;;4.00;100.00;102958.78;4922469;28;20042;-76
2024/01/31 04:06:01;;;;;;;12.45;1.63;;;;;;;4.03;100.00;102973.50;4907663;29;20042;-76
2024/01/31 04:08:27;;;;;;;9.27;1.98;;;;;;;4.03;100.00;102969.03;4940051;28;20087;-76
2024/01/31 04:10:52;;;;;;;2.58;1.00;;;;;;;4.04;100.00;102978.63;4942919;28;20042;-78
2024/01/31 04:13:18;;;;;;;10.00;2.28;;;;;;;4.06;100.00;102983.75;4916058;28;20054;-77
2024/01/31 04:15:45;;;;;;;7.53;1.13;;;;;;;4.03;100.00;102979.63;4941311;28;20043;-75
2024/01/31 04:18:10;;;;;;;;;;;;;;;4.03;100.00;102979.63;4941929;28;20516;-76
2024/01/31 04:20:40;;;;;;;8.90;1.42;;;;;;;4.03;100.00;102981.44;4927977;28;19919;-75
2024/01/31 04:23:06;;;;;;;8.38;2.22;;;;;;;4.03;100.00;102986.75;4935060;29;20052;-76
2024/01/31 04:25:34;;;;;;;9.23;1.25;;;;;;;4.02;100.00;102985.94;4936788;28;20971;-76
2024/01/31 04:27:59;;;;;;;4.22;0.80;;;;;;;4.01;100.00;102994.88;4938295;28;20136;-76
2024/01/31 04:30:25;;;;;;;8.52;1.60;;;;;;;4.00;100.00;102992.41;4924369;28;20523;-76
2024/01/31 04:32:50;;;;;;;5.50;1.15;;;;;;;4.00;100.00;103009.16;4937359;28;20063;-76
2024/01/31 04:35:16;;;;;;;8.15;1.42;;;;;;;4.00;100.00;103003.03;4919796;29;20043;-76
2024/01/31 04:37:42;;;;;;;9.15;1.23;;;;;;;4.01;100.00;103007.31;4933768;28;20509;-77
2024/01/31 04:40:08;;;;;;;7.95;1.00;;;;;;;4.02;100.00;103007.13;4923589;29;20046;-76
2024/01/31 04:42:35;;;;;;;7.80;1.02;;;;;;;4.01;100.00;103012.63;4931948;28;20031;-77
2024/01/31 04:45:01;;;;;;;8.68;1.20;;;;;;;3.95;100.00;103019.44;4938833;28;20058;-76
2024/01/31 04:47:26;;;;;;;9.25;1.30;;;;;;;3.97;100.00;103025.38;4938303;28;20509;-76
2024/01/31 04:49:53;;;;;;;6.20;1.20;;;;;;;3.98;100.00;103016.41;4938050;28;20043;-77
2024/01/31 04:52:19;;;;;;;9.38;1.35;;;;;;;3.92;100.00;103017.09;4936702;28;20043;-78
2024/01/31 04:54:44;;;;;;;6.15;1.35;;;;;;;3.91;100.00;103015.44;4911406;29;20032;-76
2024/01/31 04:57:10;;;;;;;7.40;1.27;;;;;;;3.95;100.00;103018.59;4940066;28;20043;-76
2024/01/31 04:59:39;;;;;;;8.73;1.30;;;;;;;3.91;100.00;103020.75;4927665;28;20501;-77
2024/01/31 05:02:06;;;;;;;5.35;1.05;;;;;;;3.93;100.00;103013.47;4936758;28;20039;-76
2024/01/31 05:04:32;;;;;;;8.52;1.50;;;;;;;3.90;100.00;103010.31;4941147;28;20097;-76
2024/01/31 05:06:58;;;;;;;12.30;1.73;;;;;;;3.91;100.00;103019.94;4940467;28;20031;-76
2024/01/31 05:09:23;;;;;;;13.18;2.00;;;;;;;3.87;100.00;103014.16;4927898;29;20050;-76
2024/01/31 05:11:49;;;;;;;7.70;1.63;;;;;;;3.86;100.00;103014.28;4925212;29;20027;-76
2024/01/31 05:14:15;;;;;;;10.35;2.03;;;;;;;3.87;100.00;103016.81;4935921;28;20224;-77
2024/01/31 05:16:42;;;;;;;6.65;1.15;;;;;;;3.88;100.00;103023.75;4940966;28;20046;-76
2024/01/31 05:19:11;;;;;;;4.93;1.73;;;;;;;3.90;100.00;103020.94;4939965;28;20027;-77
2024/01/31 05:21:48;;;;;;;8.18;1.55;;;;;;;3.87;100.00;103014.16;4938671;28;20035;-77
2024/01/31 05:24:14;;;;;;;7.82;1.33;;;;;;;3.90;100.00;103024.41;4944667;28;20034;-76
2024/01/31 05:26:42;;;;;;;7.15;1.05;;;;;;;3.90;100.00;103027.06;4927493;29;20146;-77
2024/01/31 05:29:08;;;;;;;8.50;1.40;;;;;;;3.89;100.00;103022.75;4930247;28;20086;-77
2024/01/31 05:31:34;;;;;;;8.63;1.67;;;;;;;3.92;100.00;103019.75;4948122;28;20505;-76
2024/01/31 05:33:59;;;;;;;9.48;1.30;;;;;;;3.92;100.00;103025.06;4939019;29;20035;-76
2024/01/31 05:36:25;;;;;;;8.02;1.60;;;;;;;3.92;100.00;103040.97;4942717;28;20513;-75
2024/01/31 05:38:51;;;;;;;8.73;1.48;;;;;;;3.88;100.00;103031.72;4941970;28;20114;-76
2024/01/31 05:41:17;;;;;;;6.82;1.20;;;;;;;3.88;100.00;103042.31;4929622;29;20066;-75
2024/01/31 05:43:44;;;;;;;5.35;1.63;;;;;;;3.89;100.00;103054.56;4935180;28;20524;-76
2024/01/31 05:46:09;;;;;;;9.55;1.35;;;;;;;3.88;100.00;103055.56;4921790;29;20126;-75
2024/01/31 05:48:35;;;;;;;8.32;1.88;;;;;;;3.87;100.00;103056.56;4941669;28;20133;-76
2024/01/31 05:51:02;;;;;;;12.90;1.50;;;;;;;3.86;100.00;103057.53;4940523;28;20032;-76
2024/01/31 05:53:28;;;;;;;5.35;1.10;;;;;;;3.85;100.00;103055.88;4928089;28;20126;-76
2024/01/31 05:55:54;;;;;;;8.23;1.10;;;;;;;3.87;100.00;103056.56;4951547;28;20030;-76
2024/01/31 05:58:23;;;;;;;8.75;1.00;;;;;;;3.86;100.00;103060.19;4920329;28;20114;-75
2024/01/31 06:00:49;;;;;;;7.53;1.10;;;;;;;3.87;100.00;103053.09;4934771;28;20043;-75
2024/01/31 06:03:15;;;;;;;10.02;1.45;;;;;;;3.87;100.00;103056.56;4938657;28;20051;-76
2024/01/31 06:05:42;;;;;;;5.72;0.90;;;;;;;3.87;100.00;103047.78;4942522;28;20544;-77
2024/01/31 06:08:07;;;;;;;7.80;1.55;;;;;;;3.86;100.00;103044.28;4942687;28;20125;-76
2024/01/31 06:10:33;;;;;;;5.10;1.40;;;;;;;3.86;100.00;103054.88;4953706;28;20039;-77
2024/01/31 06:12:59;;;;;;;9.40;1.52;;;;;;;3.87;100.00;103056.56;4919687;29;20089;-75
2024/01/31 06:15:25;;;;;;;4.65;1.30;;;;;;;3.87;100.00;103069.00;4927541;28;20504;-76
2024/01/31 06:17:51;;;;;;;6.93;1.10;;;;;;;3.87;100.00;103069.81;4941357;28;20098;-76
2024/01/31 06:20:17;;;;;;;6.43;1.38;;;;;;;3.92;100.00;103072.78;4923821;29;20039;-76
2024/01/31 06:22:43;;;;;;;6.85;1.38;;;;;;;3.94;100.00;103068.16;4917208;28;20036;-77
2024/01/31 06:25:09;;;;;;;8.13;1.55;;;;;;;3.94;100.00;103068.16;4926926;29;20035;-77
2024/01/31 06:27:36;;;;;;;5.82;1.30;;;;;;;3.96;100.00;103079.41;4937666;28;20043;-78
2024/01/31 06:30:03;;;;;;;7.68;1.10;;;;;;;3.96;100.00;103076.75;4939992;28;20564;-77
2024/01/31 06:32:34;;;;;;;6.75;1.35;;;;;;;3.96;100.00;103071.44;4942526;28;20412;-76
2024/01/31 06:35:00;;;;;;;4.45;1.05;;;;;;;3.96;100.00;103082.06;4934933;28;20050;-77
2024/01/31 06:37:27;;;;;;;7.88;1.17;;;;;;;3.95;100.00;103080.41;4935243;28;20050;-77
2024/01/31 06:39:54;;;;;;;4.45;0.90;;;;;;;3.95;100.00;103091.00;4934206;28;20075;-77
2024/01/31 06:42:20;;;;;;;9.45;1.45;;;;;;;3.93;100.00;103087.72;4924435;29;20038;-77
2024/01/31 06:44:46;;;;;;;4.57;1.10;;;;;;;3.91;100.00;103084.38;4941540;29;20153;-77
2024/01/31 06:47:12;;;;;;;10.15;1.60;;;;;;;3.92;100.00;103101.09;4937775;28;20457;-77
2024/01/31 06:49:38;;;;;;;7.97;1.73;;;;;;;3.95;100.00;103100.78;4940560;28;20050;-77
2024/01/31 06:52:06;;;;;;;7.35;0.82;;;;;;;3.94;100.00;103088.53;4926813;29;20032;-76
2024/01/31 06:54:32;;;;;;;8.02;1.65;;;;;;;3.97;100.00;103089.00;4945008;28;20082;-76
2024/01/31 06:56:58;;;;;;;9.25;1.10;;;;;;;3.98;100.00;103097.78;4942765;28;20031;-77
2024/01/31 06:59:23;;;;;;;6.60;0.90;;;;;;;4.00;100.00;103094.00;4926276;28;20094;-77
2024/01/31 07:01:49;;;;;;;6.65;1.13;;;;;;;3.99;100.00;103107.41;4938913;28;20652;-77
2024/01/31 07:04:14;;;;;;;7.68;1.10;;;;;;;4.00;100.00;103098.47;4942414;28;20047;-79
2024/01/31 07:06:40;;;;;;;7.78;2.08;;;;;;;4.00;100.00;103098.47;4946826;28;20500;-77
2024/01/31 07:09:06;;;;;;;12.55;1.88;;;;;;;4.01;100.00;103110.72;4941842;28;20035;-77
2024/01/31 07:11:31;;;;;;;5.40;1.38;;;;;;;4.02;100.00;103107.06;4933511;28;20054;-77
2024/01/31 07:13:57;;;;;;;5.50;1.10;;;;;;;4.03;100.00;103098.13;4923103;29;20035;-76
2024/01/31 07:16:22;;;;;;;5.80;1.05;;;;;;;4.02;100.00;103096.47;4943621;28;20049;-77
2024/01/31 07:18:48;;;;;;;6.75;1.13;;;;;;;4.04;100.00;103113.84;4937687;28;20110;-77
2024/01/31 07:21:23;;;;;;;7.75;0.80;;;;;;;4.03;100.00;103112.19;4922440;29;20046;-78
2024/01/31 07:23:49;;;;;;;5.13;1.20;;;;;;;4.05;100.00;103122.63;4933319;28;20150;-77
2024/01/31 07:26:28;;;;;;;5.18;1.20;;;;;;;4.06;100.00;103129.59;4936536;28;20629;-77
2024/01/31 07:28:54;;;;;;;;;;;;;;;4.06;100.00;103127.78;4944002;28;20524;-77
2024/01/31 07:31:19;;;;;;;8.63;1.25;;;;;;;4.06;100.00;103125.13;4920984;29;19969;-77
2024/01/31 07:33:46;;;;;;;5.85;1.15;;;;;;;4.09;100.00;103124.78;4940343;28;20544;-77
2024/01/31 07:36:12;;;;;;;8.65;1.48;;;;;;;4.08;100.00;103127.63;4939539;28;20035;-76
2024/01/31 07:38:46;;;;;;;7.18;1.52;;;;;;;4.08;100.00;103117.84;4951721;28;20035;-76
2024/01/31 07:41:12;;;;;;;7.13;1.10;;;;;;;4.10;100.00;103123.78;4930924;28;20118;-76
2024/01/31 07:43:40;;;;;;;7.95;1.38;;;;;;;4.09;100.00;103124.78;4927014;29;20043;-78
2024/01/31 07:46:06;;;;;;;3.65;0.70;;;;;;;4.13;100.00;103135.06;4935488;28;20054;-76
2024/01/31 07:48:31;;;;;;;10.23;1.77;;;;;;;4.15;100.00;103143.69;4935138;28;20035;-76
2024/01/31 07:50:58;;;;;;;7.05;1.25;;;;;;;4.15;100.00;103139.22;4933757;28;20039;-78
2024/01/31 07:53:24;;;;;;;4.15;1.55;;;;;;;4.17;100.00;103139.03;4938618;28;20046;-76
2024/01/31 07:55:50;;;;;;;8.35;1.20;;;;;;;4.18;100.00;103141.50;4936313;28;20035;-77
2024/01/31 07:58:15;;;;;;;5.78;1.00;;;;;;;4.20;100.00;103131.59;4941474;28;20051;-77
2024/01/31 08:00:41;;;;;;;11.25;1.48;;;;;;;4.20;100.00;103120.13;4938088;28;20031;-77
2024/01/31 08:03:07;;;;;;;7.28;1.08;;;;;;;4.22;100.00;103124.28;4939460;28;20031;-78
2024/01/31 08:05:33;;;;;;;6.30;1.42;;;;;;;4.26;100.00;103122.09;4932359;28;20047;-76
2024/01/31 08:07:58;;;;;;;7.28;2.42;;;;;;;4.28;100.00;103120.13;4934416;28;20397;-77
2024/01/31 08:10:24;;;;;;;7.20;1.10;;;;;;;4.28;100.00;103120.13;4923623;29;20051;-77
2024/01/31 08:12:49;;;;;;;8.23;1.20;;;;;;;4.28;100.00;103115.63;4942386;28;20057;-76
2024/01/31 08:15:17;;;;;;;10.13;1.33;;;;;;;4.31;100.00;103122.41;4929005;29;20054;-76
2024/01/31 08:17:44;;;;;;;5.72;1.25;;;;;;;4.32;100.00;103134.69;4942733;28;20032;-77
2024/01/31 08:20:10;;;;;;;5.10;1.10;;;;;;;4.36;100.00;103134.19;4952643;28;20040;-76
2024/01/31 08:22:35;;;;;;;6.50;1.35;;;;;;;4.37;100.00;103132.34;4921825;28;20046;-77
2024/01/31 08:25:01;;;;;;;7.25;1.52;;;;;;;4.36;100.00;103131.53;4923626;29;20783;-77
2024/01/31 08:27:27;;;;;;;7.97;1.40;;;;;;;4.38;100.00;103139.31;4938680;28;20576;-77
2024/01/31 08:29:54;;;;;;;4.97;1.00;;;;;;;4.41;100.00;103144.31;4945406;28;20050;-75
2024/01/31 08:32:20;;;;;;;6.55;1.27;;;;;;;4.44;100.00;103148.44;4926854;29;20036;-77
2024/01/31 08:34:46;;;;;;;8.63;1.70;;;;;;;4.46;100.00;103154.38;4910523;28;20544;-75
2024/01/31 08:37:12;;;;;;;7.90;1.70;;;;;;;4.46;100.00;103163.16;4925956;29;20126;-77
2024/01/31 08:39:37;;;;;;;4.03;1.38;;;;;;;4.51;100.00;103171.47;4937956;28;20785;-76
2024/01/31 08:42:04;;;;;;;5.65;0.80;;;;;;;4.50;100.00;103174.28;4933205;28;20027;-76
2024/01/31 08:44:30;;;;;;;6.10;1.35;;;;;;;4.53;100.00;103181.91;4938361;28;20070;-78
2024/01/31 08:46:55;;;;;;;10.32;1.35;;;;;;;4.52;100.00;103178.41;4942386;28;20047;-74
2024/01/31 08:49:21;;;;;;;7.22;1.00;;;;;;;4.55;100.00;103182.56;4938767;28;20057;-76
2024/01/31 08:51:47;;;;;;;9.77;1.85;;;;;;;4.54;100.00;103176.44;4944430;28;20132;-76
2024/01/31 08:54:13;;;;;;;6.88;0.85;;;;;;;4.56;100.00;103163.81;4943736;28;20034;-76
2024/01/31 08:56:39;;;;;;;8.23;1.85;;;;;;;4.58;100.00;103167.13;4929273;28;20058;-75
2024/01/31 08:59:05;;;;;;;5.70;1.33;;;;;;;4.61;100.00;103172.09;4938382;28;20037;-75
2024/01/31 09:01:30;;;;;;;6.15;0.95;;;;;;;4.60;100.00;103173.06;4939791;28;20035;-75
2024/01/31 09:03:56;;;;;;;8.05;1.40;;;;;;;4.61;100.00;103156.19;4938615;28;20602;-76
2024/01/31 09:06:24;;;;;;;5.43;1.20;;;;;;;4.62;100.00;103160.50;4942252;28;20082;-75
2024/01/31 09:08:49;;;;;;;6.20;1.65;;;;;;;4.65;100.00;103167.28;4943450;28;20122;-75
2024/01/31 09:11:24;;;;;;;6.80;1.45;;;;;;;4.69;100.00;103162.47;4944385;28;20400;-74
2024/01/31 09:13:49;;;;;;;7.95;2.30;;;;;;;4.70;100.00;103167.59;4931698;28;20099;-74
2024/01/31 09:16:16;;;;;;;6.45;1.55;;;;;;;4.73;100.00;103163.75;4946798;28;20803;-74
2024/01/31 09:18:43;;;;;;;8.32;1.80;;;;;;;4.72;100.00;103154.97;4941839;28;20044;-74
2024/01/31 09:21:20;;;;;;;7.07;1.60;;;;;;;4.73;100.00;103158.44;4940875;28;20082;-74
2024/01/31 09:23:46;;;;;;;4.75;1.85;;;;;;;4.74;100.00;103152.13;4939814;28;20055;-73
2024/01/31 09:26:12;;;;;;;4.43;1.02;;;;;;;4.80;100.00;103159.41;4924818;29;20047;-73
2024/01/31 09:28:39;;;;;;;16.67;3.17;;;;;;;4.81;100.00;103156.59;4922801;28;20042;-72
2024/01/31 09:31:04;;;;;;;5.60;1.25;;;;;;;4.82;100.00;103152.13;4937026;28;20036;-72
2024/01/31 09:33:30;;;;;;;6.97;0.90;;;;;;;4.84;100.00;103150.94;4939770;28;20046;-72
2024/01/31 09:35:56;;;;;;;7.50;1.30;;;;;;;4.84;100.00;103150.13;4924319;29;20500;-73
2024/01/31 09:38:25;;;;;;;7.18;2.22;;;;;;;4.83;100.00;103143.16;4936281;28;20121;-73
2024/01/31 09:40:51;;;;;;;7.88;1.88;;;;;;;4.88;100.00;103138.16;4939681;28;20215;-72
2024/01/31 09:43:18;;;;;;;7.82;0.88;;;;;;;4.94;100.00;103145.41;4938132;28;20660;-73
2024/01/31 09:45:44;;;;;;;3.80;1.30;;;;;;;4.98;100.00;103144.06;4935042;28;20134;-74
2024/01/31 09:48:13;;;;;;;6.57;1.10;;;;;;;5.00;100.00;103134.09;4920338;28;20131;-74
2024/01/31 09:50:39;;;;;;;10.43;1.50;;;;;;;5.01;100.00;103141.06;4931923;28;20053;-72
2024/01/31 09:53:06;;;;;;;9.48;1.33;;;;;;;4.99;100.00;103140.41;4942925;28;20500;-73
2024/01/31 09:55:34;;;;;;;8.57;0.98;;;;;;;5.01;100.00;103135.75;4934082;28;20039;-72
2024/01/31 09:58:01;;;;;;;9.15;1.40;;;;;;;5.03;100.00;103128.44;4939161;28;20097;-73
2024/01/31 10:00:27;;;;;;;6.95;1.23;;;;;;;5.05;100.00;103130.94;4946136;28;20045;-72
2024/01/31 10:02:53;;;;;;;5.40;1.55;;;;;;;5.05;100.00;103137.06;4948973;28;20027;-72
2024/01/31 10:05:19;;;;;;;8.40;1.40;;;;;;;5.10;100.00;103131.25;4949554;28;20070;-73
2024/01/31 10:07:44;;;;;;;9.32;2.00;;;;;;;5.06;100.00;103112.16;4940916;28;20527;-71
2024/01/31 10:10:10;;;;;;;7.55;1.15;;;;;;;5.04;100.00;103111.50;4950058;28;20515;-75
2024/01/31 10:12:38;;;;;;;6.50;1.13;;;;;;;5.04;100.00;103097.41;4941508;28;20031;-74
2024/01/31 10:15:07;;;;;;;4.97;1.30;;;;;;;5.01;100.00;103103.88;4906986;29;20047;-73
2024/01/31 10:17:34;;;;;;;5.10;1.08;;;;;;;5.04;100.00;103087.59;4919675;29;20039;-73
2024/01/31 10:20:06;;;;;;;8.77;1.33;;;;;;;5.05;100.00;103094.56;4935543;28;20043;-73
2024/01/31 10:22:34;;;;;;;10.27;1.33;;;;;;;5.07;100.00;103091.72;4937465;28;20039;-74
2024/01/31 10:25:00;;;;;;;4.85;1.00;;;;;;;5.07;100.00;103102.34;4935618;28;20439;-73
2024/01/31 10:27:25;;;;;;;8.05;1.10;;;;;;;5.02;100.00;103097.59;4938383;28;20516;-73
2024/01/31 10:29:53;;;;;;;8.93;2.05;;;;;;;4.99;100.00;103099.75;4924290;28;20106;-71
2024/01/31 10:32:20;;;;;;;6.43;1.17;;;;;;;4.98;100.00;103077.69;4939150;28;20536;-74
2024/01/31 10:34:47;;;;;;;7.20;1.83;;;;;;;4.98;100.00;103076.84;4939061;28;20386;-74
2024/01/31 10:37:14;;;;;;;7.40;1.13;;;;;;;5.07;100.00;103067.81;4920995;29;20126;-73
2024/01/31 10:39:39;;;;;;;7.50;1.85;;;;;;;5.01;100.00;103071.19;4935767;28;20051;-72
2024/01/31 10:42:06;;;;;;;4.95;1.02;;;;;;;5.01;100.00;103079.97;4918397;29;20031;-73
2024/01/31 10:44:37;;;;;;;4.95;1.27;;;;;;;4.94;100.00;103076.38;4931225;28;20046;-73
2024/01/31 10:47:04;;;;;;;5.55;1.00;;;;;;;4.94;100.00;103065.75;4933238;28;20042;-73
2024/01/31 10:49:30;;;;;;;5.80;1.10;;;;;;;4.98;100.00;103066.25;4936262;28;20039;-73
2024/01/31 10:51:59;;;;;;;6.47;1.42;;;;;;;5.03;100.00;103064.72;4932709;28;20086;-72
2024/01/31 10:54:30;;;;;;;4.38;1.40;;;;;;;5.07;100.00;103052.72;4911898;29;20043;-71
2024/01/31 10:56:57;;;;;;;11.52;2.05;;;;;;;5.10;100.00;103033.78;4931457;28;20035;-72
2024/01/31 10:59:23;;;;;;;7.07;1.25;;;;;;;5.23;100.00;103027.06;4927943;28;20196;-73
2024/01/31 11:01:55;;;;;;;5.93;1.77;;;;;;;5.19;100.00;103035.38;4935381;28;20502;-71
2024/01/31 11:04:23;;;;;;;5.93;1.25;;;;;;;5.15;100.00;103031.44;4918977;29;20050;-73
2024/01/31 11:06:50;;;;;;;4.57;1.33;;;;;;;5.29;100.00;103036.97;4939423;28;20054;-72
2024/01/31 11:09:22;;;;;;;5.07;1.50;;;;;;;5.35;100.00;103025.59;4923860;29;20058;-73
2024/01/31 11:12:00;;;;;;;5.13;1.55;;;;;;;5.24;100.00;103032.19;4940769;28;20035;-73
2024/01/31 11:14:29;;;;;;;4.63;1.10;;;;;;;5.26;100.00;103032.81;4945315;28;20481;-73
2024/01/31 11:17:09;;;;;;;6.68;1.20;;;;;;;5.21;100.00;103040.50;4947602;28;20514;-74
2024/01/31 11:19:46;;;;;;;4.28;1.30;;;;;;;5.19;100.00;103040.69;4941998;28;20028;-72
2024/01/31 11:22:12;;;;;;;4.93;1.02;;;;;;;5.09;100.00;103026.81;4951039;28;20035;-73